Aviation Digital Data Service (ADDS)

Output produced by METARs form (1233 UTC 20 July 2017)
found at http://www.aviationweather.gov/adds/metars/
 
UTAA 201200Z 07009KT 030V110 9999 NSC 37/05 Q1006 NOSIG
TAF UTAA 201030Z 2012/2112 05018KT 5000 SCT050 530009 
     TEMPO 2012/2016 12018G28KT 3000 BLDU 
     TEMPO 2016/2102 21014KT
       
UTAK 201200Z 24012KT CAVOK 37/08 Q1005 NOSIG
TAF UTAK 201030Z 2012/2112 09016G26KT CAVOK 530009 
     TEMPO 2012/2015 23018KT 
     TEMPO 2015/2018 33016KT SCT026 
     TEMPO 2022/2102 VRB04KT
       
UTAM 201200Z 02010KT CAVOK 36/03 Q1004 NOSIG
TAF UTAM 201030Z 2012/2112 35016KT CAVOK 530009 
     TEMPO 2012/2017 02014G24KT 4000 DRDU SKC 
     TEMPO 2017/2103 01014KT
       
UTAT 201100Z 06014KT 030V090 CAVOK 37/09 Q1009 NOSIG
TAF UTAT 201034Z 2012/2112 08016KT CAVOK 530009 
     TEMPO 2012/2018 01016KT
       
UTAV 201200Z 02010KT CAVOK 35/05 Q1004 NOSIG
TAF UTAV 201030Z 2012/2112 06016KT 5000 SKC 530007 
     TEMPO 2012/2020 01014G24KT 
     BECMG 2103/2104 CAVOK 530009
       
UTDD 201200Z VRB01MPS 9999 NSC 36/08 Q1005 R09/D NOSIG RMK QFE686/0915
TAF UTDD 201200Z 2013/2101 VRB02MPS 6000 FEW066CB SCT130 
     TEMPO 2013/2018 27008MPS
       
UTDK 201200Z 19003MPS 160V220 9999 NSC 38/05 Q1004 R01/09//70 RMK QFE696/0928
TAF UTDK 201200Z 2013/2022 03005MPS 6000 FEW066CB SCT130 
     TEMPO 2013/2022 VRB02MPS
       
UTDL 201200Z 25007MPS 9999 FEW230 34/07 Q1006 88CLRD70 NOSIG RMK QFE717/0956
TAF UTDL 201200Z 2013/2022 23005MPS 9999 NSC 
     TEMPO 2015/2022 VRB03MPS
       
UTDT 201200Z 25002MPS 200V270 9999 FEW150 37/11 Q1002 35CLRD70 RMK QFE712/0950
TAF UTDT 201200Z 2013/2022 VRB02MPS 6000 FEW066CB SCT120 
     TEMPO 2013/2022 19006MPS
       
UTFF 201200Z 34006KT 9999 NSC 34/06 Q1006 R18/CLRD70
TAF UTFF 201200Z 2013/2022 14010KT 9999 FEW060CB TX37/2110Z 
     TEMPO 2013/2022 28014KT SCT060CB BKN100
       
UTFN 201200Z 20004KT 140V230 9999 NSC 34/10 Q1005 R28/CLRD70 NOSIG
TAF UTFN 201100Z 2012/2112 35010KT 9999 FEW050CB TX37/2110Z 
     TEMPO 2012/2021 VRB02KT SCT050CB BKN100
       
UTNN 201200Z 36016KT CAVOK 36/06 Q1009 R33/CLRD60 NOSIG
TAF UTNN 201100Z 2012/2112 01014KT CAVOK 
     TEMPO 2016/2102 VRB04KT
       
UTNU 201200Z 05008KT CAVOK 35/11 Q1008 R31/CLRD70 NOSIG
TAF UTNU 201100Z 2012/2112 06010G20KT 8000 NSC TX36/2110Z 
     TEMPO 2012/2018 02008KT
       
UTSA 201200Z 02018KT 9999 NSC 35/01 Q1005 R07/CLRD70 NOSIG
TAF UTSA 201102Z 2012/2112 01010KT 7000 NSC TX36/2110Z 
     TEMPO 2012/2018 02014G24KT 
     TEMPO 2018/2103 VRB03KT
       
UTSB 201200Z 02014G24KT CAVOK 36/02 Q1005 R01/CLRD70 NOSIG
TAF UTSB 201100Z 2012/2112 36010KT 7000 NSC TX36/2110Z 
     TEMPO 2012/2018 01014G24KT 
     TEMPO 2018/2103 VRB03KT
       
UTSK 201230Z 33008KT CAVOK 38/02 Q1003 R16/CLRD70
TAF UTSK 201150Z 2013/2022 VRB04KT CAVOK TX36/2013Z 
     TEMPO 2013/2019 34012G22KT
       
UTSS 201230Z 08016KT 9999 NSC 32/01 Q1008 R09/CLRD70 NOSIG
TAF UTSS 201100Z 2012/2112 13010KT 9999 NSC TX36/2109Z 
     TEMPO 2012/2015 09014G24KT
       
UTST 201200Z 28006KT CAVOK 37/07 Q1002 R88/CLRD70 NOSIG
TAF UTST 201100Z 2012/2112 25006G16KT 6000 NSC TX40/2111Z 
     TEMPO 2018/2102 VRB06KT
       
UTTT 201200Z 22006KT 170V260 CAVOK 34/08 Q1007 R08R/CLRD70 NOSIG
TAF UTTT 201100Z 2012/2112 04010KT CAVOK TX36/2110Z 
     TEMPO 2012/2022 34015G25KT
       
UTSB 201200Z 02014G24KT CAVOK 36/02 Q1005 R01/CLRD70 NOSIG
TAF UTSB 201100Z 2012/2112 36010KT 7000 NSC TX36/2110Z 
     TEMPO 2012/2018 01014G24KT 
     TEMPO 2018/2103 VRB03KT
       
UTSK 201230Z 33008KT CAVOK 38/02 Q1003 R16/CLRD70
TAF UTSK 201150Z 2013/2022 VRB04KT CAVOK TX36/2013Z 
     TEMPO 2013/2019 34012G22KT
       
UTSS 201230Z 08016KT 9999 NSC 32/01 Q1008 R09/CLRD70 NOSIG
TAF UTSS 201100Z 2012/2112 13010KT 9999 NSC TX36/2109Z 
     TEMPO 2012/2015 09014G24KT
       
UTST 201200Z 28006KT CAVOK 37/07 Q1002 R88/CLRD70 NOSIG
TAF UTST 201100Z 2012/2112 25006G16KT 6000 NSC TX40/2111Z 
     TEMPO 2018/2102 VRB06KT
       
UTNU 201200Z 05008KT CAVOK 35/11 Q1008 R31/CLRD70 NOSIG
TAF UTNU 201100Z 2012/2112 06010G20KT 8000 NSC TX36/2110Z 
     TEMPO 2012/2018 02008KT
       
UTTT 201200Z 22006KT 170V260 CAVOK 34/08 Q1007 R08R/CLRD70 NOSIG
TAF UTTT 201100Z 2012/2112 04010KT CAVOK TX36/2110Z 
     TEMPO 2012/2022 34015G25KT